createdAt,value
2019-02-23T00:02:31.427Z,99.90
2019-02-23T00:05:01.192Z,99.90
2019-02-23T00:07:30.779Z,99.90
2019-02-23T00:10:08.738Z,99.90
2019-02-23T00:12:41.973Z,99.90
2019-02-23T00:15:10.872Z,99.90
2019-02-23T00:17:43.209Z,99.90
2019-02-23T00:20:15.410Z,99.90
2019-02-23T00:22:45.725Z,99.90
2019-02-23T00:25:16.102Z,99.90
2019-02-23T00:27:45.561Z,99.90
2019-02-23T00:30:14.724Z,99.90
2019-02-23T00:32:45.113Z,99.90
2019-02-23T00:35:14.495Z,99.90
2019-02-23T00:37:53.001Z,99.90
2019-02-23T00:40:22.198Z,99.90
2019-02-23T00:42:52.463Z,99.90
2019-02-23T00:45:21.968Z,99.90
2019-02-23T00:47:51.430Z,99.90
2019-02-23T00:50:20.587Z,99.90
2019-02-23T00:52:50.106Z,99.90
2019-02-23T00:55:19.547Z,99.90
2019-02-23T00:57:48.707Z,99.90
2019-02-23T01:00:18.330Z,99.90
2019-02-23T01:02:47.655Z,99.90
2019-02-23T01:05:17.169Z,99.90
2019-02-23T01:07:46.853Z,99.90
2019-02-23T01:10:19.426Z,99.90
2019-02-23T01:12:50.199Z,99.90
2019-02-23T01:15:19.399Z,99.90
2019-02-23T01:17:48.782Z,99.90
2019-02-23T01:20:18.444Z,99.90
2019-02-23T01:22:47.900Z,99.90
2019-02-23T01:25:17.384Z,99.90
2019-02-23T01:27:47.175Z,99.90
2019-02-23T01:30:16.441Z,99.90
2019-02-23T01:32:47.361Z,99.90
2019-02-23T01:35:16.947Z,99.90
2019-02-23T01:37:46.243Z,99.90
2019-02-23T01:40:16.667Z,99.90
2019-02-23T01:42:45.896Z,99.90
2019-02-23T01:45:15.469Z,99.90
2019-02-23T01:47:44.890Z,99.90
2019-02-23T01:50:14.123Z,99.90
2019-02-23T01:52:43.540Z,99.90
2019-02-23T01:55:13.078Z,99.90
2019-02-23T01:57:42.497Z,99.90
2019-02-23T02:00:14.017Z,99.90
2019-02-23T02:02:44.824Z,99.90
2019-02-23T02:05:14.665Z,99.90
2019-02-23T02:07:44.317Z,99.90
2019-02-23T02:10:14.297Z,99.90
2019-02-23T02:12:43.845Z,99.90
2019-02-23T02:15:16.078Z,99.90
2019-02-23T02:17:45.784Z,99.90
2019-02-23T02:20:15.021Z,99.90
2019-02-23T02:22:44.218Z,99.90
2019-02-23T02:25:13.623Z,99.90
2019-02-23T02:27:42.777Z,99.90
2019-02-23T02:30:12.887Z,99.90
2019-02-23T02:32:42.960Z,99.90
2019-02-23T02:35:13.270Z,99.90
2019-02-23T02:37:43.650Z,99.90
2019-02-23T02:40:13.185Z,99.90
2019-02-23T02:42:42.620Z,99.90
2019-02-23T02:45:11.979Z,99.90
2019-02-23T02:47:41.269Z,99.90
2019-02-23T02:50:23.923Z,99.90
2019-02-23T02:52:44.403Z,99.90
2019-02-23T02:55:13.831Z,99.90
2019-02-23T02:57:43.349Z,99.90
2019-02-23T03:00:13.385Z,99.90
2019-02-23T03:02:42.752Z,99.90
2019-02-23T03:05:11.964Z,99.90
2019-02-23T03:07:41.537Z,99.90
2019-02-23T03:10:11.678Z,99.90
2019-02-23T03:12:41.325Z,99.90
2019-02-23T03:15:11.613Z,99.90
2019-02-23T03:17:41.031Z,99.90
2019-02-23T03:20:10.330Z,99.90
2019-02-23T03:22:39.658Z,99.90
2019-02-23T03:25:09.110Z,99.90
2019-02-23T03:27:38.274Z,99.90
2019-02-23T03:30:10.268Z,99.90
2019-02-23T03:32:39.984Z,99.90
2019-02-23T03:35:10.428Z,99.90
2019-02-23T03:37:39.702Z,99.90
2019-02-23T03:40:11.147Z,99.90
2019-02-23T03:42:40.592Z,99.90
2019-02-23T03:45:10.247Z,99.90
2019-02-23T03:47:39.592Z,99.90
2019-02-23T03:50:09.962Z,99.90
2019-02-23T03:52:40.629Z,99.90
2019-02-23T03:55:09.925Z,99.90
2019-02-23T03:57:39.313Z,99.90
2019-02-23T04:00:10.320Z,99.90
2019-02-23T04:02:40.729Z,99.90
2019-02-23T04:05:09.893Z,99.90
2019-02-23T04:07:40.182Z,99.90
2019-02-23T04:10:09.723Z,99.90
2019-02-23T04:12:39.141Z,99.90
2019-02-23T04:15:08.599Z,99.90
2019-02-23T04:17:43.905Z,99.90
2019-02-23T04:20:13.417Z,99.90
2019-02-23T04:22:42.903Z,99.90
2019-02-23T04:25:12.056Z,99.90
2019-02-23T04:27:43.186Z,99.90
2019-02-23T04:30:12.733Z,99.90
2019-02-23T04:32:42.216Z,99.90
2019-02-23T04:35:11.740Z,99.90
2019-02-23T04:37:41.162Z,99.90
2019-02-23T04:40:12.323Z,99.90
2019-02-23T04:42:41.862Z,99.90
2019-02-23T04:45:11.325Z,99.90
2019-02-23T04:47:41.649Z,99.90
2019-02-23T04:50:11.459Z,99.90
2019-02-23T04:52:40.697Z,99.90
2019-02-23T04:55:10.512Z,99.90
2019-02-23T04:57:39.761Z,99.90
2019-02-23T05:00:15.316Z,99.90
2019-02-23T05:02:44.488Z,99.90
2019-02-23T05:05:13.958Z,99.90
2019-02-23T05:07:43.560Z,99.90
2019-02-23T05:10:13.384Z,99.90
2019-02-23T05:12:43.707Z,99.90
2019-02-23T05:15:14.001Z,99.90
2019-02-23T05:17:43.496Z,99.90
2019-02-23T05:20:13.851Z,99.90
2019-02-23T05:22:43.325Z,99.90
2019-02-23T05:25:12.495Z,99.90
2019-02-23T05:27:41.957Z,99.90
2019-02-23T05:30:13.077Z,99.90
2019-02-23T05:32:42.660Z,99.90
2019-02-23T05:35:13.382Z,99.90
2019-02-23T05:37:43.645Z,99.90
2019-02-23T05:40:14.101Z,99.90
2019-02-23T05:42:45.543Z,99.90
2019-02-23T05:45:15.045Z,99.90
2019-02-23T05:47:44.527Z,99.90
2019-02-23T05:50:13.731Z,99.90
2019-02-23T05:52:43.115Z,99.90
2019-02-23T05:55:12.313Z,99.90
2019-02-23T05:57:41.752Z,99.90
2019-02-23T06:00:14.040Z,99.90
2019-02-23T06:02:45.049Z,99.90
2019-02-23T06:05:15.249Z,99.90
2019-02-23T06:07:46.559Z,99.90
2019-02-23T06:10:19.096Z,99.90
2019-02-23T06:12:48.292Z,99.90
2019-02-23T06:15:17.693Z,99.90
2019-02-23T06:17:47.198Z,99.90
2019-02-23T06:20:16.483Z,99.90
2019-02-23T06:22:46.779Z,99.90
2019-02-23T06:25:16.529Z,99.90
2019-02-23T06:27:46.066Z,99.90
2019-02-23T06:30:18.351Z,99.90
2019-02-23T06:32:46.678Z,99.90
2019-02-23T06:35:16.213Z,99.90
2019-02-23T06:37:45.680Z,99.90
2019-02-23T06:40:14.844Z,99.90
2019-02-23T06:42:44.314Z,99.90
2019-02-23T06:45:14.458Z,99.90
2019-02-23T06:47:43.707Z,99.90
2019-02-23T06:50:14.783Z,99.90
2019-02-23T06:52:45.183Z,99.90
2019-02-23T06:55:14.335Z,99.90
2019-02-23T06:57:43.837Z,99.90
2019-02-23T07:00:15.602Z,99.90
2019-02-23T07:02:46.080Z,99.90
2019-02-23T07:05:15.837Z,99.90
2019-02-23T07:07:45.084Z,99.90
2019-02-23T07:10:14.693Z,99.90
2019-02-23T07:12:45.270Z,99.90
2019-02-23T07:15:14.810Z,99.90
2019-02-23T07:17:44.509Z,99.90
2019-02-23T07:20:13.952Z,99.90
2019-02-23T07:22:43.346Z,99.90
2019-02-23T07:25:13.666Z,99.90
2019-02-23T07:27:42.867Z,99.90
2019-02-23T07:30:13.903Z,99.90
2019-02-23T07:32:43.141Z,99.90
2019-02-23T07:35:13.008Z,99.90
2019-02-23T07:37:42.430Z,99.90
2019-02-23T07:40:16.456Z,99.90
2019-02-23T07:42:47.607Z,99.90
2019-02-23T07:45:17.168Z,99.90
2019-02-23T07:47:47.410Z,99.90
2019-02-23T07:50:17.067Z,99.90
2019-02-23T07:52:48.468Z,99.90
2019-02-23T07:55:17.932Z,99.90
2019-02-23T07:57:47.618Z,99.90
2019-02-23T08:00:20.363Z,99.90
2019-02-23T08:02:49.768Z,99.60
2019-02-23T08:05:19.316Z,99.20
2019-02-23T08:07:48.777Z,99.20
2019-02-23T08:10:19.929Z,98.60
2019-02-23T08:12:49.122Z,96.90
2019-02-23T08:15:20.578Z,94.50
2019-02-23T08:17:57.895Z,92.10
2019-02-23T08:20:27.389Z,92.10
2019-02-23T08:22:56.867Z,90.50
2019-02-23T08:25:33.430Z,89.60
2019-02-23T08:28:03.661Z,87.40
2019-02-23T08:30:34.113Z,86.40
2019-02-23T08:33:03.517Z,87.40
2019-02-23T08:35:33.651Z,88.00
2019-02-23T08:38:03.067Z,90.10
2019-02-23T08:40:32.516Z,91.40
2019-02-23T08:43:02.762Z,92.20
2019-02-23T08:45:32.514Z,93.70
2019-02-23T08:48:01.770Z,94.50
2019-02-23T08:50:30.952Z,94.80
2019-02-23T08:53:00.347Z,95.40
2019-02-23T08:55:29.538Z,94.90
2019-02-23T08:57:58.945Z,95.00
2019-02-23T09:00:28.113Z,93.00
2019-02-23T09:02:57.848Z,92.10
2019-02-23T09:05:33.408Z,93.00
2019-02-23T09:08:02.740Z,92.30
2019-02-23T09:10:32.305Z,91.30
2019-02-23T09:13:01.725Z,91.10
2019-02-23T09:15:33.122Z,89.50
2019-02-23T09:18:02.381Z,86.20
2019-02-23T09:20:31.683Z,84.40
2019-02-23T09:23:03.056Z,75.80
2019-02-23T09:25:34.231Z,70.70
2019-02-23T09:28:03.671Z,66.10
2019-02-23T09:30:32.869Z,61.60
2019-02-23T09:33:03.149Z,59.20
2019-02-23T09:35:32.663Z,60.80
2019-02-23T09:38:02.162Z,63.10
2019-02-23T09:40:31.819Z,58.90
2019-02-23T09:43:01.204Z,57.60
2019-02-23T09:45:30.642Z,59.20
2019-02-23T09:48:00.123Z,54.80
2019-02-23T09:50:30.800Z,55.10
2019-02-23T09:53:10.465Z,58.70
2019-02-23T09:55:31.325Z,68.60
2019-02-23T09:58:00.596Z,62.50
2019-02-23T10:00:29.869Z,68.20
2019-02-23T10:02:59.200Z,72.60
2019-02-23T10:05:28.419Z,74.10
2019-02-23T10:08:04.797Z,78.40
2019-02-23T10:10:35.094Z,78.50
2019-02-23T10:13:04.270Z,79.10
2019-02-23T10:15:34.548Z,83.00
2019-02-23T10:18:04.181Z,83.30
2019-02-23T10:20:35.567Z,85.70
2019-02-23T10:23:09.200Z,85.30
2019-02-23T10:25:38.685Z,85.40
2019-02-23T10:28:08.993Z,84.40
2019-02-23T10:30:38.200Z,87.20
2019-02-23T10:33:07.598Z,86.90
2019-02-23T10:35:36.748Z,85.10
2019-02-23T10:38:06.240Z,84.40
2019-02-23T10:40:35.722Z,87.10
2019-02-23T10:43:05.215Z,88.00
2019-02-23T10:45:34.412Z,84.30
2019-02-23T10:48:03.904Z,86.60
2019-02-23T10:50:34.275Z,83.60
2019-02-23T10:53:03.667Z,83.50
2019-02-23T10:55:33.391Z,81.90
2019-02-23T10:58:02.612Z,82.40
2019-02-23T11:00:33.291Z,82.40
2019-02-23T11:03:02.498Z,82.50
2019-02-23T11:05:34.099Z,86.60
2019-02-23T11:08:03.750Z,85.70
2019-02-23T11:10:33.348Z,85.80
2019-02-23T11:13:02.569Z,86.10
2019-02-23T11:15:32.161Z,86.10
2019-02-23T11:18:02.973Z,83.30
2019-02-23T11:20:32.775Z,85.10
2019-02-23T11:23:02.276Z,85.40
2019-02-23T11:25:34.272Z,87.70
2019-02-23T11:28:03.745Z,89.50
2019-02-23T11:30:33.353Z,86.90
2019-02-23T11:33:02.698Z,86.30
2019-02-23T11:35:34.795Z,83.00
2019-02-23T11:38:04.254Z,82.30
2019-02-23T11:40:33.700Z,83.70
2019-02-23T11:43:03.251Z,80.70
2019-02-23T11:45:33.625Z,80.50
2019-02-23T11:48:03.016Z,79.00
2019-02-23T11:50:32.539Z,78.10
2019-02-23T11:53:02.062Z,75.80
2019-02-23T11:55:31.752Z,72.00
2019-02-23T11:58:00.964Z,70.10
2019-02-23T12:00:30.175Z,71.30
2019-02-23T12:02:59.713Z,76.30
2019-02-23T12:05:29.131Z,74.60
2019-02-23T12:07:59.492Z,74.80
2019-02-23T12:10:28.778Z,76.70
2019-02-23T12:12:58.109Z,76.90
2019-02-23T12:15:27.600Z,75.60
2019-02-23T12:17:57.082Z,77.50
2019-02-23T12:20:26.608Z,79.90
2019-02-23T12:22:56.989Z,77.40
2019-02-23T12:25:29.272Z,75.20
2019-02-23T12:28:01.413Z,78.10
2019-02-23T12:30:33.132Z,76.20
2019-02-23T12:33:03.539Z,75.10
2019-02-23T12:35:33.290Z,69.20
2019-02-23T12:38:02.552Z,69.70
2019-02-23T12:40:32.894Z,74.60
2019-02-23T12:43:02.547Z,81.80
2019-02-23T12:45:31.995Z,80.00
2019-02-23T12:48:01.382Z,78.90
2019-02-23T12:50:33.260Z,79.10
2019-02-23T12:53:01.626Z,76.80
2019-02-23T12:55:31.336Z,71.90
2019-02-23T12:58:00.664Z,74.90
2019-02-23T13:00:30.135Z,76.60
2019-02-23T13:03:00.453Z,77.70
2019-02-23T13:05:29.647Z,80.50
2019-02-23T13:07:59.077Z,76.00
2019-02-23T13:10:28.316Z,76.10
2019-02-23T13:13:15.395Z,76.00
2019-02-23T13:15:53.267Z,75.90
2019-02-23T13:18:52.307Z,78.10
2019-02-23T13:21:36.237Z,79.00
2019-02-23T13:24:09.642Z,82.40
2019-02-23T13:26:57.449Z,81.10
2019-02-23T13:29:29.971Z,79.70
2019-02-23T13:32:18.810Z,80.00
2019-02-23T13:35:22.094Z,81.10
2019-02-23T13:38:03.397Z,84.10
2019-02-23T13:40:45.555Z,83.20
2019-02-23T13:43:18.982Z,81.60
2019-02-23T13:46:04.008Z,82.80
2019-02-23T13:48:42.143Z,83.40
2019-02-23T13:51:48.632Z,88.10
2019-02-23T13:54:38.986Z,89.40
2019-02-23T13:57:39.804Z,85.80
2019-02-23T14:00:45.290Z,87.10
2019-02-23T14:03:36.692Z,89.40
2019-02-23T14:06:24.015Z,89.60
2019-02-23T14:09:29.928Z,90.30
2019-02-23T14:12:11.569Z,91.00
2019-02-23T14:15:16.571Z,90.90
2019-02-23T14:18:00.777Z,91.60
2019-02-23T14:20:56.185Z,91.70
2019-02-23T14:23:40.502Z,92.10
2019-02-23T14:26:30.673Z,92.40
2019-02-23T14:29:04.934Z,91.30
2019-02-23T14:31:47.444Z,91.20
2019-02-23T14:34:24.573Z,91.40
2019-02-23T14:36:59.604Z,91.10
2019-02-23T14:40:06.333Z,91.90
2019-02-23T14:42:48.409Z,93.50
2019-02-23T14:45:23.929Z,93.80
2019-02-23T14:48:01.256Z,93.90
2019-02-23T14:50:48.598Z,94.50
2019-02-23T14:53:41.173Z,93.70
2019-02-23T14:56:28.437Z,94.10
2019-02-23T14:59:01.137Z,93.70
2019-02-23T15:02:03.119Z,94.40
2019-02-23T15:04:43.975Z,95.10
2019-02-23T15:07:34.116Z,96.20
2019-02-23T15:10:36.342Z,96.20
2019-02-23T15:13:42.328Z,95.40
2019-02-23T15:16:40.594Z,96.70
2019-02-23T15:19:27.997Z,96.70
2019-02-23T15:22:09.066Z,96.20
2019-02-23T15:24:46.915Z,96.10
2019-02-23T15:27:24.982Z,95.70
2019-02-23T15:30:12.473Z,95.50
2019-02-23T15:32:51.262Z,96.10
2019-02-23T15:35:38.657Z,97.10
2019-02-23T15:38:10.995Z,98.10
2019-02-23T15:40:51.987Z,97.00
2019-02-23T15:43:33.634Z,97.00
2019-02-23T15:46:12.100Z,97.10
2019-02-23T15:49:00.939Z,97.70
2019-02-23T15:51:31.790Z,98.80
2019-02-23T15:54:01.149Z,99.60
2019-02-23T15:56:30.593Z,99.70
2019-02-23T15:59:00.066Z,98.40
2019-02-23T16:01:29.333Z,97.90
2019-02-23T16:04:06.639Z,97.80
2019-02-23T16:06:35.928Z,98.40
2019-02-23T16:09:06.924Z,99.10
2019-02-23T16:11:36.290Z,98.60
2019-02-23T16:14:05.844Z,99.40
2019-02-23T16:16:37.227Z,99.40
2019-02-23T16:19:06.558Z,99.30
2019-02-23T16:21:35.831Z,99.00
2019-02-23T16:24:08.266Z,98.80
2019-02-23T16:26:39.404Z,99.30
2019-02-23T16:29:08.867Z,99.20
2019-02-23T16:31:38.430Z,99.90
2019-02-23T16:34:07.923Z,99.90
2019-02-23T16:36:38.205Z,99.90
2019-02-23T16:39:11.887Z,99.90
2019-02-23T16:41:41.374Z,99.90
2019-02-23T16:44:10.825Z,99.80
2019-02-23T16:46:41.563Z,99.90
2019-02-23T16:49:11.915Z,99.90
2019-02-23T16:51:41.381Z,99.90
2019-02-23T16:54:10.912Z,99.90
2019-02-23T16:56:40.416Z,99.90
2019-02-23T16:59:10.315Z,99.90
2019-02-23T17:01:39.670Z,99.80
2019-02-23T17:04:10.596Z,99.90
2019-02-23T17:06:40.857Z,99.90
2019-02-23T17:09:11.184Z,99.90
2019-02-23T17:11:41.539Z,99.90
2019-02-23T17:14:13.074Z,99.90
2019-02-23T17:16:42.629Z,99.90
2019-02-23T17:19:12.167Z,99.90
2019-02-23T17:21:41.656Z,99.90
2019-02-23T17:24:11.096Z,99.90
2019-02-23T17:26:40.661Z,99.90
2019-02-23T17:29:10.094Z,99.90
2019-02-23T17:31:39.259Z,99.90
2019-02-23T17:34:08.747Z,99.90
2019-02-23T17:36:38.218Z,99.90
2019-02-23T17:39:09.628Z,99.90
2019-02-23T17:41:38.888Z,99.90
2019-02-23T17:44:08.358Z,99.90
2019-02-23T17:46:37.856Z,99.90
2019-02-23T17:49:07.051Z,99.90
2019-02-23T17:51:37.685Z,99.90
2019-02-23T17:54:06.853Z,99.90
2019-02-23T17:56:36.641Z,99.90
2019-02-23T17:59:05.809Z,99.90
2019-02-23T18:01:35.313Z,99.90
2019-02-23T18:04:04.834Z,99.90
2019-02-23T18:06:34.404Z,99.90
2019-02-23T18:09:04.624Z,99.90
2019-02-23T18:11:34.982Z,99.90
2019-02-23T18:14:04.555Z,99.90
2019-02-23T18:16:34.051Z,99.90
2019-02-23T18:19:06.385Z,99.90
2019-02-23T18:21:36.661Z,99.90
2019-02-23T18:24:07.012Z,99.90
2019-02-23T18:26:36.542Z,99.90
2019-02-23T18:29:07.727Z,99.90
2019-02-23T18:31:37.142Z,99.90
2019-02-23T18:34:06.342Z,99.90
2019-02-23T18:36:35.742Z,99.90
2019-02-23T18:39:06.151Z,99.90
2019-02-23T18:41:37.423Z,99.90
2019-02-23T18:44:08.112Z,99.90
2019-02-23T18:46:37.455Z,99.90
2019-02-23T18:49:07.013Z,99.90
2019-02-23T18:51:36.477Z,99.90
2019-02-23T18:54:07.618Z,99.90
2019-02-23T18:56:37.171Z,99.90
2019-02-23T18:59:07.449Z,99.90
2019-02-23T19:01:38.617Z,99.90
2019-02-23T19:04:07.882Z,99.90
2019-02-23T19:06:38.081Z,99.90
2019-02-23T19:09:07.505Z,99.90
2019-02-23T19:11:36.708Z,99.90
2019-02-23T19:14:07.213Z,99.90
2019-02-23T19:16:36.438Z,99.90
2019-02-23T19:19:05.721Z,99.90
2019-02-23T19:21:37.924Z,99.90
2019-02-23T19:24:08.251Z,99.90
2019-02-23T19:26:39.422Z,99.90
2019-02-23T19:29:14.607Z,99.90
2019-02-23T19:31:44.993Z,99.90
2019-02-23T19:34:16.506Z,99.90
2019-02-23T19:36:46.065Z,99.90
2019-02-23T19:39:16.258Z,99.90
2019-02-23T19:41:45.831Z,99.90
2019-02-23T19:44:18.235Z,99.90
2019-02-23T19:46:50.589Z,99.90
2019-02-23T19:49:20.088Z,99.90
2019-02-23T19:51:49.586Z,99.90
2019-02-23T19:54:20.290Z,99.90
2019-02-23T19:56:49.449Z,99.90
2019-02-23T19:59:18.916Z,99.90
2019-02-23T20:01:48.115Z,99.90
2019-02-23T20:04:18.822Z,99.90
2019-02-23T20:06:48.297Z,99.90
2019-02-23T20:09:17.799Z,99.90
2019-02-23T20:11:47.262Z,99.90
2019-02-23T20:14:17.595Z,99.90
2019-02-23T20:16:47.953Z,99.90
2019-02-23T20:19:19.657Z,99.90
2019-02-23T20:21:48.990Z,99.90
2019-02-23T20:24:18.514Z,99.90
2019-02-23T20:26:55.464Z,99.90
2019-02-23T20:29:19.143Z,99.90
2019-02-23T20:31:48.671Z,99.90
2019-02-23T20:34:18.145Z,99.90
2019-02-23T20:36:47.663Z,99.90
2019-02-23T20:39:18.819Z,99.90
2019-02-23T20:41:48.312Z,99.90
2019-02-23T20:44:17.811Z,99.90
2019-02-23T20:46:47.747Z,99.90
2019-02-23T20:49:17.231Z,99.90
2019-02-23T20:51:46.742Z,99.90
2019-02-23T20:54:17.091Z,99.90
2019-02-23T20:56:46.557Z,99.90
2019-02-23T20:59:16.961Z,99.90
2019-02-23T21:01:46.441Z,99.90
2019-02-23T21:04:15.890Z,99.90
2019-02-23T21:06:46.242Z,99.90
2019-02-23T21:09:16.054Z,99.90
2019-02-23T21:11:46.451Z,99.90
2019-02-23T21:14:15.975Z,99.90
2019-02-23T21:16:45.187Z,99.90
2019-02-23T21:19:14.575Z,99.90
2019-02-23T21:21:45.271Z,99.90
2019-02-23T21:24:14.512Z,99.90
2019-02-23T21:26:43.908Z,99.90
2019-02-23T21:29:14.718Z,99.90
2019-02-23T21:31:44.581Z,99.90
2019-02-23T21:34:14.065Z,99.90
2019-02-23T21:36:45.208Z,99.90
2019-02-23T21:39:14.409Z,99.90
2019-02-23T21:41:47.727Z,99.90
2019-02-23T21:44:16.989Z,99.90
2019-02-23T21:46:46.546Z,99.90
2019-02-23T21:49:16.013Z,99.90
2019-02-23T21:51:45.192Z,99.90
2019-02-23T21:54:14.643Z,99.90
2019-02-23T21:56:44.139Z,99.90
2019-02-23T21:59:13.622Z,99.90
2019-02-23T22:01:43.187Z,99.90
2019-02-23T22:04:13.466Z,99.90
2019-02-23T22:06:42.972Z,99.90
2019-02-23T22:09:18.257Z,99.90
2019-02-23T22:11:48.982Z,99.90
2019-02-23T22:14:18.441Z,99.90
2019-02-23T22:16:50.045Z,99.90
2019-02-23T22:19:22.850Z,99.90
2019-02-23T22:21:52.330Z,99.90
2019-02-23T22:24:22.638Z,99.90
2019-02-23T22:26:52.124Z,99.90
2019-02-23T22:29:22.425Z,99.90
2019-02-23T22:31:51.710Z,99.90
2019-02-23T22:34:21.065Z,99.90
2019-02-23T22:36:50.534Z,99.90
2019-02-23T22:39:20.074Z,99.90
2019-02-23T22:41:49.981Z,99.90
2019-02-23T22:44:19.472Z,99.90
2019-02-23T22:46:49.922Z,99.90
2019-02-23T22:49:19.298Z,99.90
2019-02-23T22:51:48.821Z,99.90
2019-02-23T22:54:18.925Z,99.90
2019-02-23T22:56:48.214Z,99.90
2019-02-23T22:59:18.551Z,99.90
2019-02-23T23:02:00.373Z,99.90
2019-02-23T23:04:29.830Z,99.90
2019-02-23T23:06:59.064Z,99.90
2019-02-23T23:09:29.382Z,99.90
2019-02-23T23:11:58.762Z,99.90
2019-02-23T23:14:29.939Z,99.90
2019-02-23T23:17:01.848Z,99.90
2019-02-23T23:19:34.727Z,99.90
2019-02-23T23:22:06.790Z,99.90
2019-02-23T23:24:36.117Z,99.90
2019-02-23T23:27:05.286Z,99.90
2019-02-23T23:29:34.794Z,99.90
2019-02-23T23:32:04.243Z,99.90
2019-02-23T23:34:33.808Z,99.90
2019-02-23T23:37:03.271Z,99.90
2019-02-23T23:39:32.772Z,99.90
2019-02-23T23:42:02.254Z,99.90
2019-02-23T23:44:33.569Z,99.90
2019-02-23T23:47:02.908Z,99.90
2019-02-23T23:49:32.199Z,99.90
2019-02-23T23:52:05.010Z,99.90
2019-02-23T23:54:35.127Z,99.90
2019-02-23T23:57:04.627Z,99.90
2019-02-23T23:59:34.215Z,99.90
